Spotswood, New Jersey
Current Conditions -  °F | °C
As of 4:35 PM on Monday 22 Dec 2014 (Local Time) from KLDJ Reporting Station
Overcast Overcast  
Wind Chill:   Ceiling: 1200
Heat Index:   Visibility: 7mi
Dew Point:   Wind: 5mph
Humidity: 86%   Direction: 50°NE
Pressure: 30.25"   Gusts: NA
Location:  40.4°N, 74.39°W
Report Text: KLDJ 222135Z AUTO 05004KT 7SM OVC012 08/05 A3025 RMK AO2 T00760054
Loading
Personal Weather Stations






























Interactive Weather Map New forecast layout! Learn more

10-Day Weather Forecast

Advertisements
Track Severe Weather on mobile